Time;durP1;ratioP1;P1;durP2;ratioP2;P2;SDS_P1;SDS_P2;PMS_P1;PMS_P2;Temp;Humidity;BMP_temperature;BMP_pressure;BME280_temperature;BME280_humidity;BME280_pressure;Samples;Min_cycle;Max_cycle;Signal;HPM_P1;HPM_P2
2022/09/30 00:00:09;;;;;;;31.67;27.20;;;17.60;99.70;;;;;;4588951;19;20009;-31
2022/09/30 00:02:00;;;;;;;;;;;17.60;99.70;;;;;;4590435;19;20027;-31
2022/09/30 00:03:31;;;;;;;30.88;25.40;;;17.60;99.50;;;;;;4589632;19;19919;-31
2022/09/30 00:05:03;;;;;;;31.55;26.42;;;17.60;99.50;;;;;;4589630;19;20018;-32
2022/09/30 00:06:34;;;;;;;29.73;25.85;;;17.60;99.40;;;;;;4587293;19;20022;-32
2022/09/30 00:08:06;;;;;;;32.88;26.90;;;17.60;99.40;;;;;;4588066;19;20021;-31
2022/09/30 00:09:37;;;;;;;30.38;25.05;;;17.60;99.40;;;;;;4590498;19;20018;-31
2022/09/30 00:11:12;;;;;;;30.45;25.83;;;17.60;99.40;;;;;;4594540;19;20348;-33
2022/09/30 00:12:43;;;;;;;33.47;26.85;;;17.60;99.30;;;;;;4592953;19;20380;-32
2022/09/30 00:14:19;;;;;;;32.00;26.92;;;17.60;99.40;;;;;;4593736;19;20051;-30
2022/09/30 00:15:51;;;;;;;33.35;27.02;;;17.60;99.60;;;;;;4592604;19;20012;-32
2022/09/30 00:17:22;;;;;;;33.67;27.17;;;17.60;99.60;;;;;;4593928;19;20022;-31
2022/09/30 00:18:54;;;;;;;31.88;26.77;;;17.60;99.30;;;;;;4594716;19;20002;-31
2022/09/30 00:20:25;;;;;;;35.35;30.02;;;17.60;99.20;;;;;;4592839;19;20341;-31
2022/09/30 00:21:56;;;;;;;33.53;28.00;;;17.60;99.20;;;;;;4593856;19;20011;-31
2022/09/30 00:23:27;;;;;;;33.00;27.52;;;17.60;99.20;;;;;;4593919;19;20015;-32
2022/09/30 00:24:58;;;;;;;34.08;29.17;;;17.60;99.20;;;;;;4592729;19;20010;-31
2022/09/30 00:26:30;;;;;;;35.03;29.92;;;17.60;99.20;;;;;;4593210;19;20370;-31
2022/09/30 00:28:01;;;;;;;37.75;30.85;;;17.60;99.20;;;;;;4593546;19;20014;-31
2022/09/30 00:29:32;;;;;;;36.42;31.42;;;17.60;99.10;;;;;;4594120;19;20015;-31
2022/09/30 00:31:06;;;;;;;37.20;30.65;;;17.60;99.10;;;;;;4593544;19;20011;-31
2022/09/30 00:32:37;;;;;;;37.90;29.45;;;17.60;99.40;;;;;;4591804;19;20025;-33
2022/09/30 00:34:11;;;;;;;34.45;29.42;;;17.60;99.10;;;;;;4593659;19;20040;-31
2022/09/30 00:35:42;;;;;;;31.88;26.73;;;17.60;99.00;;;;;;4592854;19;20025;-32
2022/09/30 00:37:14;;;;;;;31.63;26.42;;;17.60;99.00;;;;;;4592951;19;20345;-33
2022/09/30 00:38:45;;;;;;;32.47;27.08;;;17.60;99.00;;;;;;4593368;19;20014;-32
2022/09/30 00:40:18;;;;;;;32.67;28.15;;;17.60;98.90;;;;;;4593172;19;20015;-31
2022/09/30 00:41:59;;;;;;;31.48;26.38;;;17.50;98.90;;;;;;4592926;19;20019;-31
2022/09/30 00:43:50;;;;;;;29.83;25.40;;;17.50;98.90;;;;;;4593283;19;20459;-31
2022/09/30 00:45:21;;;;;;;28.65;23.90;;;17.50;98.90;;;;;;4593152;19;20041;-33
2022/09/30 00:46:53;;;;;;;25.08;19.70;;;17.50;98.80;;;;;;4591019;19;20376;-31
2022/09/30 00:48:26;;;;;;;;;;;17.60;98.90;;;;;;4591728;19;20368;-32
2022/09/30 00:50:05;;;;;;;21.92;18.52;;;17.50;99.00;;;;;;4592104;19;19915;-31
2022/09/30 00:51:46;;;;;;;20.05;15.80;;;17.50;99.00;;;;;;4592206;19;20033;-32
2022/09/30 00:53:43;;;;;;;14.43;12.73;;;17.50;99.10;;;;;;4593060;19;20018;-31
2022/09/30 00:55:23;;;;;;;14.25;11.90;;;17.60;99.20;;;;;;4590951;19;21009;-32
2022/09/30 00:56:59;;;;;;;14.00;11.98;;;17.50;99.20;;;;;;4590928;19;20018;-33
2022/09/30 00:58:38;;;;;;;12.57;11.38;;;17.50;99.30;;;;;;4591340;19;20184;-32
2022/09/30 01:00:09;;;;;;;11.30;10.25;;;17.50;99.20;;;;;;4590666;19;20022;-31
2022/09/30 01:01:41;;;;;;;12.57;11.27;;;17.50;99.30;;;;;;4591121;19;20033;-31
2022/09/30 01:03:12;;;;;;;;;;;17.50;99.30;;;;;;4591643;19;20364;-31
2022/09/30 01:04:46;;;;;;;11.38;10.27;;;17.50;99.20;;;;;;4591158;19;19982;-31
2022/09/30 01:06:17;;;;;;;12.15;10.88;;;17.50;99.10;;;;;;4590378;19;20074;-32
2022/09/30 01:07:49;;;;;;;;;;;17.50;99.20;;;;;;4591668;19;20010;-31
2022/09/30 01:09:20;;;;;;;12.23;11.02;;;17.50;99.10;;;;;;4591048;19;20317;-31
2022/09/30 01:10:51;;;;;;;12.02;10.82;;;17.50;99.30;;;;;;4590455;19;20351;-32
2022/09/30 01:12:22;;;;;;;13.90;10.93;;;17.50;99.30;;;;;;4589245;19;20464;-32
2022/09/30 01:13:56;;;;;;;12.85;11.52;;;17.50;99.40;;;;;;4590975;19;20014;-31
2022/09/30 01:15:50;;;;;;;12.13;10.93;;;17.50;99.40;;;;;;4590500;19;20353;-33
2022/09/30 01:17:39;;;;;;;12.80;11.27;;;17.50;99.50;;;;;;4591305;19;20405;-31
2022/09/30 01:19:34;;;;;;;16.67;13.73;;;17.50;99.60;;;;;;4590379;19;20002;-31
2022/09/30 01:21:23;;;;;;;16.40;13.27;;;17.50;99.50;;;;;;4589178;19;20477;-32
2022/09/30 01:23:25;;;;;;;19.08;14.50;;;17.50;99.40;;;;;;4590420;19;20006;-31
2022/09/30 01:24:56;;;;;;;18.40;14.05;;;17.50;99.20;;;;;;4590491;19;20014;-32
2022/09/30 01:26:35;;;;;;;18.48;13.93;;;17.50;99.20;;;;;;4590442;19;20096;-32
2022/09/30 01:28:26;;;;;;;24.48;18.33;;;17.50;99.20;;;;;;4590635;19;19995;-33
2022/09/30 01:30:14;;;;;;;37.67;25.33;;;17.50;99.20;;;;;;4590373;19;20082;-31
2022/09/30 01:32:10;;;;;;;40.10;26.80;;;17.50;99.20;;;;;;4589327;19;20480;-31
2022/09/30 01:34:14;;;;;;;34.92;24.92;;;17.50;99.10;;;;;;4590067;19;20011;-32
2022/09/30 01:36:04;;;;;;;36.45;25.60;;;17.50;98.90;;;;;;4589618;19;20027;-31
2022/09/30 01:37:48;;;;;;;31.33;21.67;;;17.50;98.90;;;;;;4589844;19;20014;-32
2022/09/30 01:39:31;;;;;;;27.92;20.50;;;17.50;98.90;;;;;;4589435;19;20014;-33
2022/09/30 01:41:11;;;;;;;24.88;19.88;;;17.50;98.90;;;;;;4589839;19;20039;-31
2022/09/30 01:42:56;;;;;;;25.08;19.02;;;17.50;98.80;;;;;;4589823;19;20375;-31
2022/09/30 01:44:30;;;;;;;25.70;18.27;;;17.50;98.80;;;;;;4590692;19;20091;-30
2022/09/30 01:46:07;;;;;;;24.25;16.92;;;17.50;98.80;;;;;;4589715;19;20013;-32
2022/09/30 01:47:50;;;;;;;21.95;17.52;;;17.50;98.80;;;;;;4589487;19;20022;-31
2022/09/30 01:50:01;;;;;;;19.98;16.35;;;17.50;98.80;;;;;;4589661;19;20046;-31
2022/09/30 01:51:54;;;;;;;16.20;14.18;;;17.50;98.80;;;;;;4589752;19;20014;-32
2022/09/30 01:53:40;;;;;;;14.90;13.30;;;17.50;98.80;;;;;;4589417;19;20016;-32
2022/09/30 01:55:26;;;;;;;15.27;13.20;;;17.50;98.70;;;;;;4589767;19;20006;-32
2022/09/30 01:57:04;;;;;;;15.40;13.57;;;17.50;98.80;;;;;;4589718;19;20015;-33
2022/09/30 01:58:41;;;;;;;15.48;13.82;;;17.50;98.80;;;;;;4589319;19;20476;-31
2022/09/30 02:00:12;;;;;;;13.65;11.85;;;17.50;98.90;;;;;;4589158;19;20021;-32
2022/09/30 02:01:53;;;;;;;15.38;13.70;;;17.50;98.90;;;;;;4589535;19;20011;-32
2022/09/30 02:03:41;;;;;;;13.70;12.30;;;17.50;98.90;;;;;;4589502;19;20472;-33
2022/09/30 02:05:47;;;;;;;13.10;11.80;;;17.50;98.90;;;;;;4589978;19;19998;-33
2022/09/30 02:07:25;;;;;;;15.00;13.40;;;17.50;98.80;;;;;;4589266;19;20042;-32
2022/09/30 02:09:05;;;;;;;16.30;14.60;;;17.50;98.90;;;;;;4589035;19;20018;-31
2022/09/30 02:10:52;;;;;;;15.05;13.50;;;17.50;98.80;;;;;;4589587;19;20478;-32
2022/09/30 02:12:24;;;;;;;14.52;13.02;;;17.50;98.60;;;;;;4587796;19;20018;-31
2022/09/30 02:14:06;;;;;;;13.85;12.48;;;17.50;98.50;;;;;;4589589;19;20011;-31
2022/09/30 02:15:40;;;;;;;15.05;13.45;;;17.50;98.40;;;;;;4589974;19;19995;-33
2022/09/30 02:17:18;;;;;;;16.98;14.93;;;17.40;98.30;;;;;;4589136;19;20015;-31
2022/09/30 02:18:52;;;;;;;18.80;16.80;;;17.50;98.40;;;;;;4589204;19;20484;-31
2022/09/30 02:20:25;;;;;;;18.45;16.27;;;17.40;98.30;;;;;;4588981;19;20018;-31
2022/09/30 02:21:59;;;;;;;20.83;17.85;;;17.50;98.40;;;;;;4589538;19;20074;-31
2022/09/30 02:23:34;;;;;;;20.48;17.13;;;17.50;98.30;;;;;;4588899;19;20027;-33
2022/09/30 02:25:07;;;;;;;23.10;19.55;;;17.40;98.30;;;;;;4589151;19;20011;-31
2022/09/30 02:26:39;;;;;;;25.80;20.42;;;17.50;98.20;;;;;;4589181;19;20021;-33
2022/09/30 02:28:14;;;;;;;26.83;20.15;;;17.40;98.10;;;;;;4589692;19;20017;-31
2022/09/30 02:29:49;;;;;;;21.70;17.95;;;17.40;98.00;;;;;;4588728;19;20046;-32
2022/09/30 02:31:20;;;;;;;19.75;16.00;;;17.50;98.10;;;;;;4588513;19;20010;-31
2022/09/30 02:32:56;;;;;;;20.90;16.70;;;17.40;98.00;;;;;;4587441;19;20074;-31
2022/09/30 02:34:28;;;;;;;20.65;16.63;;;17.40;97.80;;;;;;4589667;19;20002;-31
2022/09/30 02:36:05;;;;;;;22.50;18.35;;;17.40;97.70;;;;;;4588830;19;20103;-31
2022/09/30 02:37:39;;;;;;;27.05;19.70;;;17.40;97.70;;;;;;4588804;19;20039;-33
2022/09/30 02:39:15;;;;;;;20.80;18.27;;;17.40;97.70;;;;;;4588021;19;20344;-31
2022/09/30 02:41:01;;;;;;;20.75;17.13;;;17.40;97.70;;;;;;4589587;19;20334;-31
2022/09/30 02:42:32;;;;;;;19.38;15.77;;;17.40;97.60;;;;;;4589389;19;20010;-32
2022/09/30 02:44:03;;;;;;;19.73;17.05;;;17.40;97.60;;;;;;4588798;19;20010;-32
2022/09/30 02:46:05;;;;;;;18.67;15.30;;;17.40;97.70;;;;;;4590481;19;20467;-32
2022/09/30 02:48:14;;;;;;;20.40;16.02;;;17.40;97.80;;;;;;4588068;19;20495;-32
2022/09/30 02:49:51;;;;;;;18.98;15.63;;;17.40;97.70;;;;;;4588424;19;20010;-32
2022/09/30 02:51:52;;;;;;;16.88;14.68;;;17.40;97.60;;;;;;4588855;19;20005;-31
2022/09/30 02:53:39;;;;;;;15.95;14.15;;;17.40;97.80;;;;;;4588724;19;20029;-32
2022/09/30 02:55:16;;;;;;;15.68;13.98;;;17.40;97.90;;;;;;4588337;19;20026;-31
2022/09/30 02:57:00;;;;;;;14.93;13.13;;;17.40;97.90;;;;;;4588476;19;20531;-32
2022/09/30 02:58:33;;;;;;;15.45;12.98;;;17.40;98.00;;;;;;4588035;19;20014;-32
2022/09/30 03:00:05;;;;;;;15.02;12.77;;;17.40;98.10;;;;;;4588299;19;20361;-33
2022/09/30 03:01:40;;;;;;;14.75;12.57;;;17.40;98.10;;;;;;4588233;19;20018;-31
2022/09/30 03:03:18;;;;;;;16.15;14.07;;;17.40;98.10;;;;;;4588010;19;20030;-31
2022/09/30 03:04:50;;;;;;;17.40;15.10;;;17.40;98.00;;;;;;4588393;19;20013;-31
2022/09/30 03:06:21;;;;;;;19.38;15.82;;;17.40;98.00;;;;;;4588493;19;20032;-31
2022/09/30 03:07:52;;;;;;;19.63;16.67;;;17.40;97.90;;;;;;4588772;19;20017;-32
2022/09/30 03:09:24;;;;;;;17.80;14.68;;;17.40;97.90;;;;;;4587953;19;20035;-33
2022/09/30 03:10:55;;;;;;;16.63;14.73;;;17.40;98.00;;;;;;4588343;19;20014;-32
2022/09/30 03:12:41;;;;;;;18.40;14.88;;;17.40;98.00;;;;;;4587176;19;20007;-32
2022/09/30 03:14:30;;;;;;;18.25;13.90;;;17.40;98.10;;;;;;4588466;19;20481;-32
2022/09/30 03:16:08;;;;;;;19.27;14.70;;;17.40;98.10;;;;;;4588924;19;20030;-32
2022/09/30 03:17:44;;;;;;;15.38;13.57;;;17.40;98.00;;;;;;4588131;19;20022;-32
2022/09/30 03:19:44;;;;;;;16.67;13.15;;;17.40;98.10;;;;;;4587955;19;20048;-33
2022/09/30 03:21:45;;;;;;;15.88;13.88;;;17.40;98.10;;;;;;4587932;19;20014;-31
2022/09/30 03:23:33;;;;;;;15.20;13.18;;;17.40;98.00;;;;;;4588062;19;20014;-31
2022/09/30 03:25:17;;;;;;;15.77;14.18;;;17.40;98.10;;;;;;4587734;19;20037;-32
2022/09/30 03:27:13;;;;;;;15.35;13.75;;;17.40;98.10;;;;;;4588043;19;20018;-32
2022/09/30 03:29:16;;;;;;;16.75;14.65;;;17.40;98.00;;;;;;4587725;19;20014;-31
2022/09/30 03:31:11;;;;;;;17.85;14.60;;;17.40;97.90;;;;;;4587430;19;20010;-32
2022/09/30 03:33:06;;;;;;;17.20;14.77;;;17.40;97.80;;;;;;4586389;19;20354;-32
2022/09/30 03:34:49;;;;;;;16.35;14.65;;;17.40;97.80;;;;;;4587425;19;20006;-33
2022/09/30 03:36:27;;;;;;;22.98;17.58;;;17.40;97.90;;;;;;4587796;19;20114;-31
2022/09/30 03:38:22;;;;;;;23.20;18.27;;;17.40;97.80;;;;;;4587656;19;20011;-31
2022/09/30 03:39:58;;;;;;;23.20;17.13;;;17.40;97.80;;;;;;4586770;19;20015;-31
2022/09/30 03:41:39;;;;;;;30.08;20.05;;;17.40;97.80;;;;;;4587719;19;20023;-32
2022/09/30 03:43:19;;;;;;;36.88;21.88;;;17.40;97.80;;;;;;4587987;19;20022;-32
2022/09/30 03:45:12;;;;;;;36.97;21.73;;;17.40;98.00;;;;;;4592107;19;20040;-31
2022/09/30 03:46:59;;;;;;;36.28;22.75;;;17.40;97.60;;;;;;4592110;19;20027;-32
2022/09/30 03:48:45;;;;;;;30.38;18.40;;;17.40;97.50;;;;;;4590464;19;20006;-32
2022/09/30 03:50:18;;;;;;;22.77;17.15;;;17.40;97.40;;;;;;4592528;19;20018;-31
2022/09/30 03:51:49;;;;;;;23.33;16.08;;;17.40;97.40;;;;;;4591521;19;20006;-32
2022/09/30 03:53:20;;;;;;;18.83;14.90;;;17.40;97.40;;;;;;4592105;19;20082;-31
2022/09/30 03:54:59;;;;;;;18.58;15.05;;;17.40;97.40;;;;;;4592245;19;20066;-31
2022/09/30 03:56:30;;;;;;;21.85;15.00;;;17.40;97.50;;;;;;4591910;19;20018;-31
2022/09/30 03:58:02;;;;;;;18.95;14.75;;;17.40;97.50;;;;;;4592136;19;20018;-31
2022/09/30 03:59:33;;;;;;;17.52;14.93;;;17.40;97.50;;;;;;4591576;19;20022;-32
2022/09/30 04:01:04;;;;;;;16.70;14.43;;;17.40;97.50;;;;;;4591876;19;20385;-32
2022/09/30 04:02:36;;;;;;;16.90;13.68;;;17.40;97.50;;;;;;4592027;19;20358;-31
2022/09/30 04:04:08;;;;;;;19.88;15.30;;;17.40;97.50;;;;;;4591765;19;20014;-32
2022/09/30 04:05:39;;;;;;;18.77;15.20;;;17.40;97.50;;;;;;4592044;19;20015;-33
2022/09/30 04:07:10;;;;;;;18.50;14.88;;;17.40;97.60;;;;;;4591910;19;20006;-32
2022/09/30 04:08:43;;;;;;;20.38;14.55;;;17.40;97.60;;;;;;4594137;19;20010;-31
2022/09/30 04:10:16;;;;;;;19.05;15.98;;;17.40;97.70;;;;;;4594932;19;20363;-31
2022/09/30 04:11:47;;;;;;;19.00;14.88;;;17.40;97.70;;;;;;4595655;19;20010;-31
2022/09/30 04:13:18;;;;;;;18.15;15.48;;;17.40;97.70;;;;;;4596075;19;20105;-31
2022/09/30 04:14:49;;;;;;;16.10;14.25;;;17.40;97.70;;;;;;4596285;19;20010;-32
2022/09/30 04:16:21;;;;;;;15.70;14.00;;;17.40;97.70;;;;;;4595742;19;20011;-30
2022/09/30 04:17:52;;;;;;;15.98;14.13;;;17.40;97.80;;;;;;4595700;19;20022;-31
2022/09/30 04:19:23;;;;;;;;;;;17.40;97.80;;;;;;4595087;19;20514;-31
2022/09/30 04:20:55;;;;;;;15.40;13.70;;;17.40;97.80;;;;;;4595870;19;19919;-31
2022/09/30 04:22:26;;;;;;;16.30;14.45;;;17.40;97.90;;;;;;4595802;19;20011;-31
2022/09/30 04:23:57;;;;;;;15.20;13.50;;;17.40;97.90;;;;;;4594894;19;20395;-33
2022/09/30 04:25:29;;;;;;;15.15;13.55;;;17.30;97.80;;;;;;4594617;19;20015;-33
2022/09/30 04:27:00;;;;;;;15.45;13.68;;;17.40;97.90;;;;;;4595078;19;20033;-31
2022/09/30 04:28:32;;;;;;;15.02;13.52;;;17.30;97.90;;;;;;4593474;19;20007;-31
2022/09/30 04:30:03;;;;;;;;;;;17.40;97.90;;;;;;4594837;19;20014;-31
2022/09/30 04:31:35;;;;;;;14.05;12.65;;;17.30;97.80;;;;;;4594508;19;19911;-31
2022/09/30 04:33:06;;;;;;;14.38;12.88;;;17.30;97.80;;;;;;4595615;19;20011;-32
2022/09/30 04:34:37;;;;;;;;;;;17.30;97.70;;;;;;4596405;19;20476;-32
2022/09/30 04:36:08;;;;;;;13.02;11.68;;;17.20;97.80;;;;;;4595689;19;19918;-31
2022/09/30 04:37:48;;;;;;;13.10;11.70;;;17.30;97.70;;;;;;4592538;19;20010;-30
2022/09/30 04:39:19;;;;;;;13.63;12.23;;;17.30;97.80;;;;;;4594151;19;20017;-32
2022/09/30 04:40:51;;;;;;;13.65;12.25;;;17.20;97.90;;;;;;4593496;19;20476;-31
2022/09/30 04:42:23;;;;;;;12.57;11.27;;;17.30;98.00;;;;;;4593445;19;20014;-31
2022/09/30 04:43:54;;;;;;;14.98;13.13;;;17.30;98.00;;;;;;4593817;19;20007;-31
2022/09/30 04:45:25;;;;;;;12.73;11.45;;;17.30;98.00;;;;;;4594206;19;20006;-31
2022/09/30 04:46:57;;;;;;;13.90;12.48;;;17.30;98.00;;;;;;4593034;19;20018;-31
2022/09/30 04:48:30;;;;;;;13.38;12.07;;;17.30;98.00;;;;;;4592707;19;20456;-31
2022/09/30 04:50:01;;;;;;;12.20;11.00;;;17.40;98.10;;;;;;4593418;19;20382;-32
2022/09/30 04:51:32;;;;;;;13.57;12.27;;;17.40;98.10;;;;;;4592729;19;20015;-31
2022/09/30 04:53:03;;;;;;;12.73;11.43;;;17.40;98.10;;;;;;4593045;19;20014;-31
2022/09/30 04:54:34;;;;;;;15.20;13.60;;;17.40;98.20;;;;;;4593606;19;20010;-32
2022/09/30 04:56:05;;;;;;;17.30;15.50;;;17.40;98.20;;;;;;4591409;19;20014;-31
2022/09/30 04:57:36;;;;;;;19.15;17.15;;;17.40;98.30;;;;;;4594531;19;20024;-33
2022/09/30 04:59:08;;;;;;;20.63;18.00;;;17.40;98.30;;;;;;4594992;19;20349;-32
2022/09/30 05:00:39;;;;;;;20.17;18.08;;;17.40;98.30;;;;;;4593671;19;20010;-31
2022/09/30 05:02:12;;;;;;;23.55;18.75;;;17.40;98.20;;;;;;4591968;19;20030;-32
2022/09/30 05:03:43;;;;;;;20.13;17.90;;;17.40;98.20;;;;;;4592643;19;20021;-31
2022/09/30 05:05:15;;;;;;;;;;;17.40;98.20;;;;;;4595547;19;20010;-31
2022/09/30 05:06:48;;;;;;;19.40;17.30;;;17.40;98.30;;;;;;4593529;19;19922;-31
2022/09/30 05:08:21;;;;;;;19.23;17.20;;;17.40;98.30;;;;;;4592618;19;20478;-31
2022/09/30 05:09:52;;;;;;;18.42;16.52;;;17.40;98.40;;;;;;4592764;19;20006;-32
2022/09/30 05:11:24;;;;;;;18.25;16.35;;;17.40;98.40;;;;;;4592479;19;20018;-30
2022/09/30 05:12:56;;;;;;;18.33;16.38;;;17.40;98.50;;;;;;4592580;19;20109;-31
2022/09/30 05:14:27;;;;;;;18.17;16.27;;;17.40;98.40;;;;;;4591473;19;20010;-31
2022/09/30 05:21:38;;;;;;;19.20;16.85;;;17.40;98.50;;;;;;4593342;19;19979;-32
2022/09/30 05:23:09;;;;;;;20.77;17.45;;;17.40;98.60;;;;;;4591816;19;20082;-31
2022/09/30 05:24:40;;;;;;;19.90;17.30;;;17.40;98.60;;;;;;4591489;19;20336;-33
2022/09/30 05:26:11;;;;;;;20.80;18.42;;;17.50;98.70;;;;;;4591184;19;20337;-32
2022/09/30 05:27:43;;;;;;;22.60;19.52;;;17.50;98.60;;;;;;4588399;19;20006;-33
2022/09/30 05:29:15;;;;;;;21.00;18.52;;;17.50;98.70;;;;;;4590010;19;20364;-32
2022/09/30 05:30:48;;;;;;;18.58;16.58;;;17.50;98.70;;;;;;4593217;19;20024;-31
2022/09/30 05:32:20;;;;;;;20.30;17.30;;;17.50;98.60;;;;;;4591469;19;20014;-31
2022/09/30 05:33:52;;;;;;;;;;;17.50;98.70;;;;;;4593614;19;20018;-31
2022/09/30 05:35:25;;;;;;;20.52;17.45;;;17.50;98.70;;;;;;4591877;19;19925;-31
2022/09/30 05:36:56;;;;;;;18.92;16.75;;;17.50;98.60;;;;;;4591491;19;20014;-32
2022/09/30 05:38:27;;;;;;;19.00;16.58;;;17.50;98.70;;;;;;4591370;19;20014;-32
2022/09/30 05:39:58;;;;;;;18.02;15.70;;;17.60;98.80;;;;;;4591767;19;20394;-32
2022/09/30 05:41:30;;;;;;;19.58;15.85;;;17.50;98.80;;;;;;4592528;19;20022;-31
2022/09/30 05:43:01;;;;;;;19.63;15.73;;;17.60;98.80;;;;;;4591920;19;20015;-32
2022/09/30 05:44:32;;;;;;;20.83;16.60;;;17.50;98.80;;;;;;4592021;19;20021;-33
2022/09/30 05:46:03;;;;;;;18.63;16.02;;;17.60;98.80;;;;;;4592898;19;20010;-32
2022/09/30 05:47:35;;;;;;;18.55;16.50;;;17.60;98.80;;;;;;4591201;19;20742;-32
2022/09/30 05:49:06;;;;;;;20.10;17.58;;;17.50;98.90;;;;;;4589631;19;20017;-33
2022/09/30 05:50:37;;;;;;;19.95;16.73;;;17.50;98.90;;;;;;4592214;19;20018;-32
2022/09/30 05:52:08;;;;;;;20.80;17.75;;;17.50;98.80;;;;;;4591275;19;20007;-33
2022/09/30 05:53:40;;;;;;;19.85;17.15;;;17.50;98.90;;;;;;4591268;19;20036;-31
2022/09/30 05:55:11;;;;;;;28.48;19.70;;;17.40;98.90;;;;;;4591170;19;20010;-32
2022/09/30 05:56:42;;;;;;;27.02;20.00;;;17.40;98.90;;;;;;4590090;19;20006;-31
2022/09/30 05:58:13;;;;;;;24.23;20.08;;;17.40;98.80;;;;;;4589138;19;20007;-31
2022/09/30 05:59:46;;;;;;;23.30;18.80;;;17.40;98.80;;;;;;4589571;19;20018;-32
2022/09/30 06:01:17;;;;;;;23.13;18.58;;;17.40;98.80;;;;;;4590162;19;20015;-32
2022/09/30 06:02:50;;;;;;;27.65;20.60;;;17.40;98.70;;;;;;4592977;19;20029;-32
2022/09/30 06:04:23;;;;;;;25.35;18.92;;;17.40;98.70;;;;;;4592184;19;20007;-32
2022/09/30 06:05:55;;;;;;;26.85;19.05;;;17.40;98.80;;;;;;4591477;19;20376;-32
2022/09/30 06:07:36;;;;;;;22.25;18.20;;;17.40;98.80;;;;;;4591340;19;20014;-32
2022/09/30 06:09:08;;;;;;;22.13;16.95;;;17.40;98.90;;;;;;4591673;19;20491;-31
2022/09/30 06:10:40;;;;;;;17.05;14.25;;;17.50;99.00;;;;;;4591009;19;20019;-31
2022/09/30 06:12:12;;;;;;;17.40;15.07;;;17.50;99.00;;;;;;4588706;19;20010;-31
2022/09/30 06:13:43;;;;;;;16.30;14.60;;;17.50;99.10;;;;;;4590088;19;20006;-32
2022/09/30 06:15:14;;;;;;;15.57;13.88;;;17.50;99.20;;;;;;4590258;19;20019;-30
2022/09/30 06:16:46;;;;;;;16.80;14.43;;;17.50;99.20;;;;;;4590662;19;20010;-31
2022/09/30 06:18:17;;;;;;;15.98;14.27;;;17.60;99.20;;;;;;4590034;19;20010;-33
2022/09/30 06:19:49;;;;;;;14.90;13.25;;;17.60;99.30;;;;;;4591960;19;20010;-32
2022/09/30 06:21:22;;;;;;;17.50;14.07;;;17.70;99.30;;;;;;4589838;19;20010;-32
2022/09/30 06:23:01;;;;;;;14.95;13.25;;;17.70;99.30;;;;;;4589424;19;20019;-31
2022/09/30 06:24:34;;;;;;;15.45;13.32;;;17.70;99.30;;;;;;4591252;19;20058;-33
2022/09/30 06:26:07;;;;;;;14.32;12.82;;;17.80;99.30;;;;;;4591768;19;20042;-31
2022/09/30 06:27:39;;;;;;;15.35;13.77;;;17.80;99.30;;;;;;4591513;19;20029;-31
2022/09/30 06:29:10;;;;;;;14.57;13.07;;;17.80;99.40;;;;;;4589883;19;20022;-31
2022/09/30 06:30:43;;;;;;;16.02;14.30;;;17.80;99.40;;;;;;4590254;19;20364;-32
2022/09/30 06:32:14;;;;;;;16.65;14.27;;;17.80;99.40;;;;;;4589680;19;20066;-33
2022/09/30 06:33:45;;;;;;;16.00;13.27;;;17.90;99.40;;;;;;4591015;19;20070;-32
2022/09/30 06:35:18;;;;;;;16.27;13.60;;;17.90;99.40;;;;;;4590549;19;20013;-32
2022/09/30 06:36:49;;;;;;;14.35;12.63;;;17.90;99.40;;;;;;4591575;19;20018;-32
2022/09/30 06:38:22;;;;;;;17.05;15.27;;;17.90;99.40;;;;;;4590214;19;20010;-31
2022/09/30 06:39:53;;;;;;;16.50;14.70;;;16.20;99.90;;;;;;4589667;19;20019;-31
2022/09/30 06:41:26;;;;;;;18.55;16.20;;;14.40;99.90;;;;;;4591063;19;20475;-31
2022/09/30 06:42:58;;;;;;;17.90;16.00;;;13.60;99.90;;;;;;4590830;19;20046;-31
2022/09/30 06:44:29;;;;;;;16.77;15.00;;;13.20;99.90;;;;;;4591356;19;20345;-31
2022/09/30 06:46:00;;;;;;;18.20;16.15;;;13.00;99.90;;;;;;4590784;19;20482;-31
2022/09/30 06:47:32;;;;;;;16.80;14.98;;;12.90;99.90;;;;;;4591775;19;20035;-30
2022/09/30 06:49:04;;;;;;;21.50;19.20;;;12.80;99.90;;;;;;4589793;19;20014;-30
2022/09/30 06:50:37;;;;;;;19.93;17.93;;;12.70;99.90;;;;;;4591287;19;20421;-31
2022/09/30 06:52:11;;;;;;;19.10;17.10;;;12.70;99.90;;;;;;4590141;19;20480;-30
2022/09/30 06:53:42;;;;;;;20.17;17.60;;;12.60;99.90;;;;;;4591022;19;20569;-31
2022/09/30 06:55:14;;;;;;;20.15;17.88;;;12.60;99.90;;;;;;4592179;19;20464;-31
2022/09/30 06:56:48;;;;;;;19.77;17.02;;;12.60;99.90;;;;;;4592389;19;20018;-31
2022/09/30 06:58:21;;;;;;;21.60;18.10;;;12.60;99.90;;;;;;4590501;19;20019;-31
2022/09/30 06:59:53;;;;;;;18.50;16.50;;;12.60;99.90;;;;;;4590592;19;20559;-31
2022/09/30 07:01:25;;;;;;;19.10;17.10;;;12.60;99.90;;;;;;4591982;19;20471;-31
2022/09/30 07:02:56;;;;;;;20.10;17.67;;;12.60;99.90;;;;;;4589387;19;20428;-30
2022/09/30 07:04:28;;;;;;;21.33;18.23;;;12.60;99.90;;;;;;4589860;19;20437;-32
2022/09/30 07:06:02;;;;;;;20.87;18.43;;;12.60;99.90;;;;;;4590950;19;20368;-32
2022/09/30 07:07:35;;;;;;;21.23;18.93;;;12.60;99.90;;;;;;4591093;19;20413;-30
2022/09/30 07:09:06;;;;;;;21.47;17.97;;;12.60;99.90;;;;;;4589367;19;20524;-30
2022/09/30 07:10:38;;;;;;;19.80;17.70;;;12.60;99.90;;;;;;4589289;19;20429;-31
2022/09/30 07:12:09;;;;;;;19.85;17.70;;;12.60;99.90;;;;;;4589708;19;20109;-32
2022/09/30 07:13:42;;;;;;;21.40;19.10;;;12.60;99.90;;;;;;4591179;19;20002;-30
2022/09/30 07:15:13;;;;;;;20.37;18.17;;;12.60;99.90;;;;;;4590234;19;20006;-31
2022/09/30 07:16:45;;;;;;;19.83;17.42;;;12.60;99.90;;;;;;4589214;19;20845;-32
2022/09/30 07:18:19;;;;;;;20.97;18.33;;;12.60;99.90;;;;;;4588704;19;20014;-32
2022/09/30 07:19:51;;;;;;;20.67;17.90;;;12.60;99.90;;;;;;4592644;19;20445;-31
2022/09/30 07:21:22;;;;;;;20.52;17.00;;;12.60;99.90;;;;;;4590415;19;20461;-31
2022/09/30 07:22:53;;;;;;;21.35;18.73;;;12.60;99.90;;;;;;4590139;19;20025;-31
2022/09/30 07:24:24;;;;;;;22.83;19.27;;;12.60;99.90;;;;;;4589444;19;20015;-30
2022/09/30 07:26:03;;;;;;;23.60;19.63;;;12.70;99.90;;;;;;4590444;19;20025;-31
2022/09/30 07:27:34;;;;;;;25.50;21.07;;;12.70;99.90;;;;;;4591496;19;20479;-32
2022/09/30 07:29:06;;;;;;;22.58;19.20;;;12.60;99.90;;;;;;4590463;19;20525;-30
2022/09/30 07:30:42;;;;;;;25.33;22.50;;;12.70;99.90;;;;;;4591498;19;20018;-32
2022/09/30 07:32:14;;;;;;;24.87;22.17;;;12.70;99.90;;;;;;4588322;19;20445;-31
2022/09/30 07:33:46;;;;;;;30.80;27.47;;;12.70;99.90;;;;;;4588755;19;20528;-30
2022/09/30 07:35:18;;;;;;;;;;;12.70;99.90;;;;;;4590129;19;20822;-30
2022/09/30 07:36:49;;;;;;;25.63;22.67;;;12.80;99.90;;;;;;4589555;19;19911;-31
2022/09/30 07:38:20;;;;;;;27.17;23.50;;;12.80;99.90;;;;;;4589346;19;20407;-31
2022/09/30 07:39:52;;;;;;;29.75;24.67;;;12.90;99.90;;;;;;4588470;19;20423;-31
2022/09/30 07:41:27;;;;;;;26.73;23.75;;;12.90;99.90;;;;;;4588812;19;20037;-31
2022/09/30 07:42:59;;;;;;;29.13;25.33;;;12.90;99.90;;;;;;4589950;19;20010;-31
2022/09/30 07:44:30;;;;;;;29.00;25.25;;;12.90;99.90;;;;;;4588591;19;20469;-31
2022/09/30 07:46:03;;;;;;;29.45;24.70;;;13.00;99.90;;;;;;4589532;19;20044;-32
2022/09/30 07:47:34;;;;;;;30.17;26.87;;;13.00;99.90;;;;;;4589664;19;20011;-31
2022/09/30 07:49:07;;;;;;;27.73;24.73;;;13.00;99.90;;;;;;4586450;19;20619;-31
2022/09/30 07:50:44;;;;;;;28.53;25.30;;;13.10;99.90;;;;;;4587968;19;20491;-30
2022/09/30 07:52:15;;;;;;;27.63;23.27;;;13.10;99.90;;;;;;4588118;19;20441;-30
2022/09/30 07:53:48;;;;;;;31.00;26.48;;;13.10;99.90;;;;;;4589597;19;20425;-31
2022/09/30 07:55:19;;;;;;;34.20;30.47;;;13.10;99.90;;;;;;4589982;19;20006;-30
2022/09/30 07:56:51;;;;;;;29.45;26.33;;;13.20;99.90;;;;;;4589525;19;20017;-30
2022/09/30 07:58:22;;;;;;;27.60;24.63;;;13.20;99.90;;;;;;4588400;19;20018;-31
2022/09/30 07:59:53;;;;;;;26.60;23.73;;;13.20;99.90;;;;;;4589473;19;20003;-31
2022/09/30 08:01:24;;;;;;;26.08;23.02;;;13.30;99.90;;;;;;4589362;19;20494;-31
2022/09/30 08:02:56;;;;;;;26.20;23.47;;;13.20;99.90;;;;;;4589341;19;20331;-31
2022/09/30 08:04:27;;;;;;;31.80;28.40;;;13.30;99.90;;;;;;4590649;19;20015;-30
2022/09/30 08:06:09;;;;;;;27.92;24.98;;;13.30;99.90;;;;;;4589367;19;20014;-30
2022/09/30 08:07:40;;;;;;;29.97;26.63;;;13.30;99.90;;;;;;4590489;19;20082;-30
2022/09/30 08:09:12;;;;;;;26.63;23.90;;;13.30;99.90;;;;;;4587571;19;20006;-32
2022/09/30 08:10:44;;;;;;;;;;;13.40;99.90;;;;;;4591362;19;20014;-30
2022/09/30 08:12:16;;;;;;;25.85;22.95;;;13.40;99.90;;;;;;4587644;19;19923;-31